Time;durP1;ratioP1;P1;durP2;ratioP2;P2;SDS_P1;SDS_P2;PMS_P1;PMS_P2;Temp;Humidity;BMP_temperature;BMP_pressure;BME280_temperature;BME280_humidity;BME280_pressure;Samples;Min_cycle;Max_cycle;Signal;HPM_P1;HPM_P2
2022/03/24 00:02:04;;;;;;;;;44.75;38.75;;;;;-146.03;100.00;60875.16;4974292;28;45427;-93
2022/03/24 00:04:29;;;;;;;;;47.75;38.50;;;;;-146.03;100.00;60875.16;4972256;28;45447;-91
2022/03/24 00:06:55;;;;;;;;;45.00;37.50;;;;;-146.03;100.00;60875.16;4969829;28;47054;-92
2022/03/24 00:09:20;;;;;;;;;50.50;41.25;;;;;-146.03;100.00;60875.16;4971886;28;45569;-91
2022/03/24 00:11:47;;;;;;;;;53.00;42.00;;;;;-146.03;100.00;60875.16;4969694;28;45377;-90
2022/03/24 00:14:14;;;;;;;;;54.75;42.25;;;;;-146.03;100.00;60875.16;4971352;28;45355;-90
2022/03/24 00:16:39;;;;;;;;;55.75;45.25;;;;;-146.03;100.00;60875.16;4968810;28;47960;-93
2022/03/24 00:19:05;;;;;;;;;52.25;42.75;;;;;-146.03;100.00;60875.16;4967442;28;45329;-90
2022/03/24 00:21:30;;;;;;;;;58.50;48.00;;;;;-146.03;100.00;60875.16;4972230;28;48341;-90
2022/03/24 00:23:55;;;;;;;;;59.75;45.00;;;;;-146.03;100.00;60875.16;4971527;28;45895;-89
2022/03/24 00:26:21;;;;;;;;;55.00;45.50;;;;;-146.03;100.00;60875.16;4971423;28;45742;-90
2022/03/24 00:28:46;;;;;;;;;54.00;43.75;;;;;-146.03;100.00;60875.16;4969365;28;45536;-89
2022/03/24 00:31:11;;;;;;;;;55.25;42.75;;;;;-146.03;100.00;60875.16;4971519;28;45462;-90
2022/03/24 00:33:40;;;;;;;;;49.00;40.75;;;;;-146.03;100.00;60875.16;4970032;28;45489;-90
2022/03/24 00:36:08;;;;;;;;;55.25;42.00;;;;;-146.03;100.00;60875.16;4968417;28;47316;-89
2022/03/24 00:38:34;;;;;;;;;49.00;39.25;;;;;-146.03;100.00;60875.16;4966220;28;45616;-91
2022/03/24 00:41:00;;;;;;;;;48.50;40.75;;;;;-146.03;100.00;60875.16;4966490;28;45552;-91
2022/03/24 00:43:25;;;;;;;;;51.00;39.50;;;;;-146.03;100.00;60875.16;4968552;28;45518;-90
2022/03/24 00:45:51;;;;;;;;;49.75;40.75;;;;;-146.03;100.00;60875.16;4962392;28;48238;-90
2022/03/24 00:48:17;;;;;;;;;50.75;38.75;;;;;-146.03;100.00;60875.16;4963996;28;45620;-90
2022/03/24 00:50:43;;;;;;;;;45.50;36.75;;;;;-146.03;100.00;60875.16;4969302;28;45319;-91
2022/03/24 00:53:08;;;;;;;;;45.00;36.00;;;;;-146.03;100.00;60875.16;4971551;28;45609;-90
2022/03/24 00:55:34;;;;;;;;;48.00;40.00;;;;;-146.03;100.00;60875.16;4970840;28;48119;-90
2022/03/24 00:58:00;;;;;;;;;44.25;36.75;;;;;-146.03;100.00;60875.16;4967647;28;45817;-90
2022/03/24 01:00:28;;;;;;;;;47.00;39.25;;;;;-146.03;100.00;60875.16;4972070;28;45905;-92
2022/03/24 01:02:54;;;;;;;;;44.50;36.75;;;;;-146.03;100.00;60875.16;4972875;28;45490;-91
2022/03/24 01:05:27;;;;;;;;;51.00;41.50;;;;;-146.03;100.00;60875.16;4925242;28;1212143;-90
2022/03/24 01:07:53;;;;;;;;;49.00;40.75;;;;;-146.03;100.00;60875.16;4973622;28;45462;-91
2022/03/24 01:10:21;;;;;;;;;41.25;35.00;;;;;-146.03;100.00;60875.16;4986530;28;45613;-91
2022/03/24 01:12:48;;;;;;;;;49.50;38.50;;;;;-146.03;100.00;60875.16;4968472;28;45438;-90
2022/03/24 01:15:16;;;;;;;;;38.75;35.75;;;;;-146.03;100.00;60875.16;4969433;28;46372;-89
2022/03/24 01:17:42;;;;;;;;;41.75;35.00;;;;;-146.03;100.00;60875.16;4972694;28;45466;-89
2022/03/24 01:20:08;;;;;;;;;49.00;39.50;;;;;-146.03;100.00;60875.16;4967871;28;45418;-89
2022/03/24 01:22:34;;;;;;;;;46.75;39.00;;;;;-146.03;100.00;60875.16;4964884;28;45402;-90
2022/03/24 01:24:59;;;;;;;;;40.25;35.25;;;;;-146.03;100.00;60875.16;4972586;28;45725;-90
2022/03/24 01:27:28;;;;;;;;;38.50;32.75;;;;;-146.03;100.00;60875.16;4972850;28;45457;-90
2022/03/24 01:29:55;;;;;;;;;46.25;37.00;;;;;-146.03;100.00;60875.16;4974183;28;45335;-91
2022/03/24 01:32:21;;;;;;;;;45.75;39.25;;;;;-146.03;100.00;60875.16;4977191;28;45646;-90
2022/03/24 01:34:48;;;;;;;;;37.50;35.00;;;;;-146.03;100.00;60875.16;4969857;28;47331;-91
2022/03/24 01:37:14;;;;;;;;;42.25;35.00;;;;;-146.03;100.00;60875.16;4977013;28;45568;-90
2022/03/24 01:39:39;;;;;;;;;42.25;35.00;;;;;-146.03;100.00;60875.16;4976301;28;45458;-89
2022/03/24 01:42:06;;;;;;;;;44.75;36.75;;;;;-146.03;100.00;60875.16;4979672;28;45392;-90
2022/03/24 01:44:32;;;;;;;;;40.75;34.00;;;;;-146.03;100.00;60875.16;4977652;28;45637;-91
2022/03/24 01:47:03;;;;;;;;;45.00;37.75;;;;;-146.03;100.00;60875.16;4973895;28;45360;-92
2022/03/24 01:49:33;;;;;;;;;44.25;37.75;;;;;-146.03;100.00;60875.16;4977733;28;45366;-92
2022/03/24 01:51:59;;;;;;;;;39.75;35.75;;;;;-146.03;100.00;60875.16;4976001;28;45339;-91
2022/03/24 01:54:30;;;;;;;;;44.00;35.50;;;;;-146.03;100.00;60875.16;4974975;28;46501;-90
2022/03/24 01:56:57;;;;;;;;;46.00;37.50;;;;;-146.03;100.00;60875.16;4972716;28;45415;-91
2022/03/24 01:59:23;;;;;;;;;41.50;34.75;;;;;-146.03;100.00;60875.16;4976018;28;45410;-90
2022/03/24 02:01:50;;;;;;;;;39.25;32.75;;;;;-146.03;100.00;60875.16;4968767;28;45442;-92
2022/03/24 02:04:16;;;;;;;;;44.00;36.75;;;;;-146.03;100.00;60875.16;4964629;28;46390;-89
2022/03/24 02:06:42;;;;;;;;;38.00;32.00;;;;;-146.03;100.00;60875.16;4976847;28;45544;-90
2022/03/24 02:09:07;;;;;;;;;42.00;35.00;;;;;-146.03;100.00;60875.16;4977865;28;45325;-92
2022/03/24 02:11:34;;;;;;;;;38.75;34.50;;;;;-146.03;100.00;60875.16;4973897;28;45335;-91
2022/03/24 02:14:00;;;;;;;;;40.75;34.75;;;;;-146.03;100.00;60875.16;4973638;28;46033;-90
2022/03/24 02:16:34;;;;;;;;;40.00;33.75;;;;;-146.03;100.00;60875.16;4977538;28;45465;-90
2022/03/24 02:19:16;;;;;;;;;48.00;36.75;;;;;-146.03;100.00;60875.16;4978210;28;45498;-90
2022/03/24 02:21:43;;;;;;;;;39.50;33.00;;;;;-146.03;100.00;60875.16;4979083;28;45583;-92
2022/03/24 02:24:09;;;;;;;;;37.50;34.25;;;;;-146.03;100.00;60875.16;4978015;28;47396;-93
2022/03/24 02:26:37;;;;;;;;;45.00;36.00;;;;;-146.03;100.00;60875.16;4974226;28;45406;-93
2022/03/24 02:29:06;;;;;;;;;45.25;36.50;;;;;-146.03;100.00;60875.16;4972665;28;45396;-93
2022/03/24 02:31:40;;;;;;;;;44.00;36.75;;;;;-146.03;100.00;60875.16;4971332;28;45448;-90
2022/03/24 02:36:58;;;;;;;;;44.25;36.50;;;;;-146.03;100.00;60875.16;4971425;28;45530;-91
2022/03/24 02:39:23;;;;;;;;;25.75;21.00;;;;;-146.03;100.00;60875.16;4966456;28;45557;-91
2022/03/24 02:41:56;;;;;;;;;26.25;23.75;;;;;-146.03;100.00;60875.16;4977964;28;45459;-91
2022/03/24 02:44:24;;;;;;;;;43.00;36.25;;;;;-146.03;100.00;60875.16;4977235;28;45340;-91
2022/03/24 02:46:52;;;;;;;;;41.00;36.25;;;;;-146.03;100.00;60875.16;4969978;28;45459;-92
2022/03/24 02:49:18;;;;;;;;;49.00;37.75;;;;;-146.03;100.00;60875.16;4977911;28;45397;-92
2022/03/24 02:51:44;;;;;;;;;39.00;34.75;;;;;-146.03;100.00;60875.16;4970189;28;45611;-91
2022/03/24 02:54:11;;;;;;;;;42.75;33.50;;;;;-146.03;100.00;60875.16;4978093;28;46087;-92
2022/03/24 02:56:37;;;;;;;;;42.50;35.50;;;;;-146.03;100.00;60875.16;4975699;28;45434;-91
2022/03/24 02:59:07;;;;;;;;;45.00;35.50;;;;;-146.03;100.00;60875.16;4971877;28;45363;-92
2022/03/24 03:01:37;;;;;;;;;36.00;35.00;;;;;-146.03;100.00;60875.16;4976792;28;45545;-91
2022/03/24 03:04:03;;;;;;;;;37.00;31.50;;;;;-146.03;100.00;60875.16;4975132;28;46157;-93
2022/03/24 03:06:29;;;;;;;;;39.50;34.75;;;;;-146.03;100.00;60875.16;4974190;28;45427;-92
2022/03/24 03:08:54;;;;;;;;;42.75;34.75;;;;;-146.03;100.00;60875.16;4980792;28;45217;-91
2022/03/24 03:11:23;;;;;;;;;38.00;33.25;;;;;-146.03;100.00;60875.16;4981321;28;45317;-94
2022/03/24 03:13:49;;;;;;;;;38.25;34.00;;;;;-146.03;100.00;60875.16;4964326;28;48471;-93
2022/03/24 03:16:15;;;;;;;;;44.75;35.50;;;;;-146.03;100.00;60875.16;4969736;28;45430;-91
2022/03/24 03:18:44;;;;;;;;;40.00;36.00;;;;;-146.03;100.00;60875.16;4976177;28;45596;-91
2022/03/24 03:21:09;;;;;;;;;41.50;33.75;;;;;-146.03;100.00;60875.16;4975203;28;45637;-89
2022/03/24 03:23:38;;;;;;;;;36.50;34.50;;;;;-146.03;100.00;60875.16;4976758;28;48353;-90
2022/03/24 03:26:08;;;;;;;;;45.75;35.25;;;;;-146.03;100.00;60875.16;4963568;28;45312;-89
2022/03/24 03:28:34;;;;;;;;;38.25;35.00;;;;;-146.03;100.00;60875.16;4975733;28;45459;-88
2022/03/24 03:31:00;;;;;;;;;39.50;34.00;;;;;-146.03;100.00;60875.16;4974881;28;45450;-90
2022/03/24 03:33:26;;;;;;;;;40.00;35.50;;;;;-146.03;100.00;60875.16;4973293;28;46670;-88
2022/03/24 03:35:52;;;;;;;;;36.25;32.25;;;;;-146.03;100.00;60875.16;4971790;28;45379;-89
2022/03/24 03:38:19;;;;;;;;;41.00;34.25;;;;;-146.03;100.00;60875.16;4969968;28;45466;-90
2022/03/24 03:40:45;;;;;;;;;39.50;35.00;;;;;-146.03;100.00;60875.16;4972400;28;45779;-90
2022/03/24 03:43:11;;;;;;;;;41.00;35.00;;;;;-146.03;100.00;60875.16;4969832;28;48930;-89
2022/03/24 03:45:37;;;;;;;;;46.75;36.25;;;;;-146.03;100.00;60875.16;4972056;28;45497;-89
2022/03/24 03:48:04;;;;;;;;;30.00;27.75;;;;;-146.03;100.00;60875.16;4974618;28;45538;-90
2022/03/24 03:50:30;;;;;;;;;47.75;36.50;;;;;-146.03;100.00;60875.16;4967800;28;45799;-88
2022/03/24 03:52:55;;;;;;;;;47.75;36.00;;;;;-146.03;100.00;60875.16;4965806;28;45350;-88
2022/03/24 03:55:21;;;;;;;;;42.25;35.00;;;;;-146.03;100.00;60875.16;4973486;28;45310;-89
2022/03/24 03:57:46;;;;;;;;;45.50;35.50;;;;;-146.03;100.00;60875.16;4966034;28;45569;-89
2022/03/24 04:02:57;;;;;;;;;42.50;33.00;;;;;-146.03;100.00;60875.16;4973768;28;45829;-89
2022/03/24 04:05:25;;;;;;;;;33.00;30.50;;;;;-146.03;100.00;60875.16;4962451;28;48395;-90
2022/03/24 04:07:51;;;;;;;;;38.50;34.00;;;;;-146.03;100.00;60875.16;4960767;28;45449;-89
2022/03/24 04:10:17;;;;;;;;;38.50;33.25;;;;;-146.03;100.00;60875.16;4976948;28;45316;-90
2022/03/24 04:12:43;;;;;;;;;41.50;34.25;;;;;-146.03;100.00;60875.16;4976346;28;46105;-92
2022/03/24 04:15:10;;;;;;;;;40.50;33.00;;;;;-146.03;100.00;60875.16;4975346;28;45706;-91
2022/03/24 04:17:35;;;;;;;;;43.25;33.00;;;;;-146.03;100.00;60875.16;4977796;28;45387;-92
2022/03/24 04:20:01;;;;;;;;;43.50;36.00;;;;;-146.03;100.00;60875.16;4977190;28;45321;-92
2022/03/24 04:22:26;;;;;;;;;36.50;33.00;;;;;-146.03;100.00;60875.16;4977092;28;46010;-91
2022/03/24 04:24:52;;;;;;;;;41.25;35.00;;;;;-146.03;100.00;60875.16;4967228;28;48211;-91
2022/03/24 04:27:18;;;;;;;;;42.75;36.50;;;;;-146.03;100.00;60875.16;4958375;28;45316;-92
2022/03/24 04:29:44;;;;;;;;;49.00;38.75;;;;;-146.03;100.00;60875.16;4959007;28;45663;-91
2022/03/24 04:32:10;;;;;;;;;45.00;34.50;;;;;-146.03;100.00;60875.16;4961518;28;45344;-91
2022/03/24 04:34:35;;;;;;;;;44.50;36.00;;;;;-146.03;100.00;60875.16;4975813;28;45374;-91
2022/03/24 04:37:02;;;;;;;;;45.00;37.00;;;;;-146.03;100.00;60875.16;4976792;28;45442;-90
2022/03/24 04:39:29;;;;;;;;;39.75;34.25;;;;;-146.03;100.00;60875.16;4965162;28;45343;-92
2022/03/24 04:41:55;;;;;;;;;44.50;36.00;;;;;-146.03;100.00;60875.16;4972676;28;45543;-91
2022/03/24 04:44:21;;;;;;;;;43.75;38.50;;;;;-146.03;100.00;60875.16;4959831;28;45230;-91
2022/03/24 04:46:47;;;;;;;;;49.25;38.25;;;;;-146.03;100.00;60875.16;4977083;28;45406;-91
2022/03/24 04:49:13;;;;;;;;;46.75;36.75;;;;;-146.03;100.00;60875.16;4974532;28;45329;-92
2022/03/24 04:51:38;;;;;;;;;41.25;37.00;;;;;-146.03;100.00;60875.16;4964847;28;48953;-90
2022/03/24 04:54:03;;;;;;;;;46.25;37.25;;;;;-146.03;100.00;60875.16;4964858;28;45292;-91
2022/03/24 04:56:29;;;;;;;;;44.75;36.00;;;;;-146.03;100.00;60875.16;4961786;28;45454;-89
2022/03/24 04:58:54;;;;;;;;;45.00;36.00;;;;;-146.03;100.00;60875.16;4975463;28;45311;-89
2022/03/24 05:01:19;;;;;;;;;42.00;36.00;;;;;-146.03;100.00;60875.16;4959492;28;45451;-90
2022/03/24 05:03:46;;;;;;;;;44.25;35.00;;;;;-146.03;100.00;60875.16;4961389;28;46015;-89
2022/03/24 05:06:13;;;;;;;;;45.00;38.00;;;;;-146.03;100.00;60875.16;4959120;28;45523;-91
2022/03/24 05:08:38;;;;;;;;;48.00;35.50;;;;;-146.03;100.00;60875.16;4960036;28;45344;-90
2022/03/24 05:11:03;;;;;;;;;37.75;34.75;;;;;-146.03;100.00;60875.16;4959973;28;51425;-92
2022/03/24 05:13:29;;;;;;;;;43.00;34.25;;;;;-146.03;100.00;60875.16;4976848;28;45288;-92
2022/03/24 05:15:56;;;;;;;;;39.25;35.50;;;;;-146.03;100.00;60875.16;4975386;28;45689;-92
2022/03/24 05:18:21;;;;;;;;;41.00;37.00;;;;;-146.03;100.00;60875.16;4969200;28;45299;-93
2022/03/24 05:20:47;;;;;;;;;53.00;41.25;;;;;-146.03;100.00;60875.16;4960950;28;45584;-90
2022/03/24 05:23:12;;;;;;;;;41.00;36.50;;;;;-146.03;100.00;60875.16;4958721;28;45549;-90
2022/03/24 05:25:38;;;;;;;;;40.50;36.75;;;;;-146.03;100.00;60875.16;4955474;28;45477;-91
2022/03/24 05:28:04;;;;;;;;;48.50;39.00;;;;;-146.03;100.00;60875.16;4959384;28;45334;-91
2022/03/24 05:30:29;;;;;;;;;51.75;37.75;;;;;-146.03;100.00;60875.16;4971511;28;45805;-93
2022/03/24 05:32:55;;;;;;;;;40.75;37.00;;;;;-146.03;100.00;60875.16;4966128;28;45335;-90
2022/03/24 05:35:20;;;;;;;;;40.75;36.00;;;;;-146.03;100.00;60875.16;4958602;28;47667;-91
2022/03/24 05:37:45;;;;;;;;;47.25;37.50;;;;;-146.03;100.00;60875.16;4959579;28;45458;-91
2022/03/24 05:40:12;;;;;;;;;45.00;36.50;;;;;-146.03;100.00;60875.16;4957206;28;47641;-91
2022/03/24 05:42:37;;;;;;;;;42.00;35.50;;;;;-146.03;100.00;60875.16;4964228;28;45393;-91
2022/03/24 05:45:03;;;;;;;;;40.25;36.25;;;;;-146.03;100.00;60875.16;4962302;28;45261;-91
2022/03/24 05:47:28;;;;;;;;;49.00;39.50;;;;;-146.03;100.00;60875.16;4966947;28;45410;-90
2022/03/24 05:49:54;;;;;;;;;41.00;32.75;;;;;-146.03;100.00;60875.16;4965441;28;46711;-90
2022/03/24 05:52:20;;;;;;;;;49.50;39.25;;;;;-146.03;100.00;60875.16;4964558;28;46215;-89
2022/03/24 05:54:47;;;;;;;;;21.00;16.50;;;;;-146.03;100.00;60875.16;4963922;28;45294;-90
2022/03/24 05:57:12;;;;;;;;;56.25;41.75;;;;;-146.03;100.00;60875.16;4961318;28;45537;-91
2022/03/24 05:59:38;;;;;;;;;36.00;30.25;;;;;-146.03;100.00;60875.16;4967925;28;45442;-92
2022/03/24 06:02:05;;;;;;;;;46.25;35.25;;;;;-146.03;100.00;60875.16;4957302;28;45392;-91
2022/03/24 06:04:31;;;;;;;;;44.50;38.25;;;;;-146.03;100.00;60875.16;4973218;28;45423;-91
2022/03/24 06:06:58;;;;;;;;;36.25;33.00;;;;;-146.03;100.00;60875.16;4964033;28;45347;-91
2022/03/24 06:09:23;;;;;;;;;44.00;37.75;;;;;-146.03;100.00;60875.16;4966333;28;46453;-91
2022/03/24 06:11:49;;;;;;;;;51.75;39.75;;;;;-146.03;100.00;60875.16;4972815;28;45224;-90
2022/03/24 06:14:15;;;;;;;;;47.25;40.00;;;;;-146.03;100.00;60875.16;4976691;28;45866;-90
2022/03/24 06:16:41;;;;;;;;;48.75;39.25;;;;;-146.03;100.00;60875.16;4962406;28;45475;-91
2022/03/24 06:19:09;;;;;;;;;45.25;37.50;;;;;-146.03;100.00;60875.16;4961753;28;46777;-90
2022/03/24 06:21:35;;;;;;;;;38.75;35.75;;;;;-146.03;100.00;60875.16;4966430;28;45456;-90
2022/03/24 06:24:00;;;;;;;;;41.00;33.75;;;;;-146.03;100.00;60875.16;4976197;28;45995;-90
2022/03/24 06:26:26;;;;;;;;;49.50;40.00;;;;;-146.03;100.00;60875.16;4977255;28;45637;-91
2022/03/24 06:28:52;;;;;;;;;52.75;40.25;;;;;-146.03;100.00;60875.16;4960530;28;48114;-90
2022/03/24 06:31:18;;;;;;;;;47.00;39.00;;;;;-146.03;100.00;60875.16;4963053;28;45391;-91
2022/03/24 06:33:44;;;;;;;;;44.75;38.00;;;;;-146.03;100.00;60875.16;4963765;28;45372;-91
2022/03/24 06:36:09;;;;;;;;;54.75;40.25;;;;;-146.03;100.00;60875.16;4964841;28;45440;-91
2022/03/24 06:38:36;;;;;;;;;51.00;40.50;;;;;-146.03;100.00;60875.16;4964831;28;46307;-90
2022/03/24 06:41:02;;;;;;;;;48.50;39.00;;;;;-146.03;100.00;60875.16;4975921;28;45331;-90
2022/03/24 06:43:27;;;;;;;;;49.25;37.25;;;;;-146.03;100.00;60875.16;4973832;28;45451;-90
2022/03/24 06:45:53;;;;;;;;;52.50;43.00;;;;;-146.03;100.00;60875.16;4962121;28;45317;-90
2022/03/24 06:48:18;;;;;;;;;50.00;39.75;;;;;-146.03;100.00;60875.16;4961126;28;45517;-92
2022/03/24 06:50:44;;;;;;;;;49.50;39.50;;;;;-146.03;100.00;60875.16;4966012;28;45891;-91
2022/03/24 06:53:09;;;;;;;;;40.75;37.50;;;;;-146.03;100.00;60875.16;4967821;28;45326;-91
2022/03/24 06:55:35;;;;;;;;;53.50;39.50;;;;;-146.03;100.00;60875.16;4974658;28;45358;-92
2022/03/24 06:58:00;;;;;;;;;47.25;38.75;;;;;-146.03;100.00;60875.16;4974491;28;47292;-92
2022/03/24 07:00:26;;;;;;;;;50.75;41.00;;;;;-146.03;100.00;60875.16;4979394;28;47924;-93
2022/03/24 07:02:52;;;;;;;;;51.50;44.00;;;;;-146.03;100.00;60875.16;4976497;28;45528;-86
2022/03/24 07:05:17;;;;;;;;;47.00;39.00;;;;;-146.03;100.00;60875.16;4958319;28;45506;-87
2022/03/24 07:07:43;;;;;;;;;53.00;42.75;;;;;-146.03;100.00;60875.16;4964630;28;46042;-89
2022/03/24 07:10:09;;;;;;;;;50.50;41.00;;;;;-146.03;100.00;60875.16;4966440;28;45358;-88
2022/03/24 07:12:35;;;;;;;;;48.75;40.50;;;;;-146.03;100.00;60875.16;4968497;28;47924;-87
2022/03/24 07:15:02;;;;;;;;;54.75;44.50;;;;;-146.03;100.00;60875.16;4963156;28;46626;-87
2022/03/24 07:17:27;;;;;;;;;54.75;42.25;;;;;-146.03;100.00;60875.16;4964994;28;46281;-88
2022/03/24 07:19:52;;;;;;;;;50.50;40.50;;;;;-146.03;100.00;60875.16;4961123;28;45609;-88
2022/03/24 07:22:18;;;;;;;;;58.50;42.75;;;;;-146.03;100.00;60875.16;4969277;28;45546;-87
2022/03/24 07:24:44;;;;;;;;;53.75;42.75;;;;;-146.03;100.00;60875.16;4959823;28;45478;-87
2022/03/24 07:27:10;;;;;;;;;55.75;42.25;;;;;-146.03;100.00;60875.16;4963651;28;45466;-86
2022/03/24 07:29:35;;;;;;;;;48.75;42.00;;;;;-146.03;100.00;60875.16;4965395;28;45276;-85
2022/03/24 07:32:01;;;;;;;;;53.25;42.00;;;;;-146.03;100.00;60875.16;4958186;28;45751;-86
2022/03/24 07:34:26;;;;;;;;;49.50;38.75;;;;;-146.03;100.00;60875.16;4961590;28;45479;-85
2022/03/24 07:36:52;;;;;;;;;50.25;38.25;;;;;-146.03;100.00;60875.16;4962250;28;45453;-83
2022/03/24 07:39:18;;;;;;;;;45.25;36.75;;;;;-146.03;100.00;60875.16;4958970;28;45564;-83
2022/03/24 07:41:44;;;;;;;;;42.75;36.00;;;;;-146.03;100.00;60875.16;4979266;28;45494;-83
2022/03/24 07:44:09;;;;;;;;;46.25;39.00;;;;;-146.03;100.00;60875.16;4974322;28;45446;-87
2022/03/24 07:46:35;;;;;;;;;49.25;39.25;;;;;-146.03;100.00;60875.16;4962179;28;45315;-86
2022/03/24 07:49:00;;;;;;;;;40.25;36.25;;;;;-146.03;100.00;60875.16;4967867;28;45445;-86
2022/03/24 07:51:31;;;;;;;;;44.75;38.75;;;;;-146.03;100.00;60875.16;4963888;28;45485;-86
2022/03/24 07:54:00;;;;;;;;;50.00;38.25;;;;;-146.03;100.00;60875.16;4963385;28;45423;-85
2022/03/24 07:56:26;;;;;;;;;48.50;39.50;;;;;-146.03;100.00;60875.16;4964560;28;46173;-85
2022/03/24 07:58:56;;;;;;;;;39.50;35.50;;;;;-146.03;100.00;60875.16;4971136;28;45716;-85
2022/03/24 08:01:36;;;;;;;;;39.50;35.00;;;;;-146.03;100.00;60875.16;4965709;28;45420;-87
2022/03/24 08:04:03;;;;;;;;;51.75;41.25;;;;;-146.03;100.00;60875.16;4964516;28;45502;-87
2022/03/24 08:06:30;;;;;;;;;49.75;39.50;;;;;-146.03;100.00;60875.16;4962969;28;45531;-86
2022/03/24 08:08:59;;;;;;;;;52.00;42.50;;;;;-146.03;100.00;60875.16;4963950;28;45565;-85
2022/03/24 08:11:27;;;;;;;;;52.25;43.00;;;;;-146.03;100.00;60875.16;4963136;28;45543;-87
2022/03/24 08:13:55;;;;;;;;;49.25;41.25;;;;;-146.03;100.00;60875.16;4964140;28;45339;-87
2022/03/24 08:16:21;;;;;;;;;52.75;42.50;;;;;-146.03;100.00;60875.16;4959804;28;45616;-86
2022/03/24 08:18:47;;;;;;;;;54.50;43.25;;;;;-146.03;100.00;60875.16;4962819;28;45742;-87
2022/03/24 08:21:12;;;;;;;;;58.00;43.75;;;;;-146.03;100.00;60875.16;4967480;28;45704;-87
2022/03/24 08:23:38;;;;;;;;;49.75;40.25;;;;;-146.03;100.00;60875.16;4961255;28;45321;-87
2022/03/24 08:26:03;;;;;;;;;50.50;41.00;;;;;-146.03;100.00;60875.16;4957783;28;46011;-87
2022/03/24 08:28:28;;;;;;;;;43.50;36.25;;;;;-146.03;100.00;60875.16;4969368;28;45600;-87
2022/03/24 08:30:54;;;;;;;;;49.75;42.00;;;;;-146.03;100.00;60875.16;4960125;28;45358;-87
2022/03/24 08:33:19;;;;;;;;;44.00;36.75;;;;;-146.03;100.00;60875.16;4965295;28;45593;-87
2022/03/24 08:35:45;;;;;;;;;50.00;40.50;;;;;-146.03;100.00;60875.16;4969162;28;45437;-87
2022/03/24 08:38:10;;;;;;;;;50.25;41.25;;;;;-146.03;100.00;60875.16;4958891;28;45566;-87
2022/03/24 08:40:37;;;;;;;;;53.50;41.25;;;;;-146.03;100.00;60875.16;4956737;28;45335;-88
2022/03/24 08:43:04;;;;;;;;;45.25;37.75;;;;;-146.03;100.00;60875.16;4958425;28;45588;-86
2022/03/24 08:45:30;;;;;;;;;48.25;41.75;;;;;-146.03;100.00;60875.16;4957255;28;48350;-87
2022/03/24 08:47:56;;;;;;;;;37.25;32.25;;;;;-146.03;100.00;60875.16;4961525;28;47241;-87
2022/03/24 08:50:21;;;;;;;;;54.25;42.50;;;;;-146.03;100.00;60875.16;4955571;28;45535;-87
2022/03/24 08:52:48;;;;;;;;;52.50;40.50;;;;;-146.03;100.00;60875.16;4971900;28;45504;-86
2022/03/24 08:55:14;;;;;;;;;53.75;43.25;;;;;-146.03;100.00;60875.16;4962120;28;46396;-85
2022/03/24 08:57:41;;;;;;;;;51.00;41.25;;;;;-146.03;100.00;60875.16;4960314;28;45332;-85
2022/03/24 09:00:12;;;;;;;;;54.00;42.50;;;;;-146.03;100.00;60875.16;4964049;28;45454;-86
2022/03/24 09:02:56;;;;;;;;;45.50;37.25;;;;;-146.03;100.00;60875.16;4969235;28;45468;-84
2022/03/24 09:05:23;;;;;;;;;121.25;110.25;;;;;-146.03;100.00;60875.16;4959473;28;45987;-84
2022/03/24 09:07:49;;;;;;;;;61.75;49.75;;;;;-146.03;100.00;60875.16;4969571;28;45341;-84
2022/03/24 09:10:15;;;;;;;;;61.00;48.75;;;;;-146.03;100.00;60875.16;4956916;28;45436;-85
2022/03/24 09:12:44;;;;;;;;;52.50;43.00;;;;;-146.03;100.00;60875.16;4958030;28;45417;-85
2022/03/24 09:15:11;;;;;;;;;49.25;39.50;;;;;-146.03;100.00;60875.16;4961476;28;47429;-85
2022/03/24 09:17:38;;;;;;;;;52.50;38.75;;;;;-146.03;100.00;60875.16;4959081;28;45525;-84
2022/03/24 09:20:07;;;;;;;;;45.00;37.25;;;;;-146.03;100.00;60875.16;4961871;28;45378;-84
2022/03/24 09:22:33;;;;;;;;;42.75;36.25;;;;;-146.03;100.00;60875.16;4958835;28;45404;-84
2022/03/24 09:24:58;;;;;;;;;44.50;36.50;;;;;-146.03;100.00;60875.16;4969908;28;47977;-84
2022/03/24 09:27:24;;;;;;;;;42.75;35.50;;;;;-146.03;100.00;60875.16;4967159;28;47175;-84
2022/03/24 09:29:49;;;;;;;;;48.00;39.75;;;;;-146.03;100.00;60875.16;4956868;28;45489;-84
2022/03/24 09:32:16;;;;;;;;;36.50;32.75;;;;;-146.03;100.00;60875.16;4967710;28;45565;-84
2022/03/24 09:34:42;;;;;;;;;45.50;37.00;;;;;-146.03;100.00;60875.16;4963350;28;45468;-84
2022/03/24 09:37:08;;;;;;;;;42.25;36.00;;;;;-146.03;100.00;60875.16;4979355;28;45505;-84
2022/03/24 09:39:34;;;;;;;;;47.00;37.00;;;;;-146.03;100.00;60875.16;4958783;28;45558;-85
2022/03/24 09:41:59;;;;;;;;;49.00;39.75;;;;;-146.03;100.00;60875.16;4961835;28;46251;-85
2022/03/24 09:44:25;;;;;;;;;46.00;36.75;;;;;-146.03;100.00;60875.16;4956962;28;46206;-85
2022/03/24 09:46:50;;;;;;;;;21.00;15.75;;;;;-146.03;100.00;60875.16;4959038;28;46093;-84
2022/03/24 09:49:16;;;;;;;;;43.25;36.00;;;;;-146.03;100.00;60875.16;4963612;28;45379;-84
2022/03/24 09:51:43;;;;;;;;;47.00;38.00;;;;;-146.03;100.00;60875.16;4963912;28;45348;-85
2022/03/24 09:54:11;;;;;;;;;43.50;35.50;;;;;-146.03;100.00;60875.16;4966206;28;46209;-84
2022/03/24 09:56:37;;;;;;;;;44.50;36.00;;;;;-146.03;100.00;60875.16;4972725;28;45326;-84
2022/03/24 09:59:03;;;;;;;;;40.00;34.25;;;;;-146.03;100.00;60875.16;4960782;28;45466;-84
2022/03/24 10:01:28;;;;;;;;;46.00;37.25;;;;;-146.03;100.00;60875.16;4959758;28;45456;-85
2022/03/24 10:04:04;;;;;;;;;45.00;36.25;;;;;-146.03;100.00;60875.16;4961087;28;46190;-84
2022/03/24 10:06:30;;;;;;;;;44.00;36.75;;;;;-146.03;100.00;60875.16;4960766;28;45331;-84
2022/03/24 10:08:56;;;;;;;;;43.25;35.75;;;;;-146.03;100.00;60875.16;4960766;28;45600;-84
2022/03/24 10:11:26;;;;;;;;;38.50;34.00;;;;;-146.03;100.00;60875.16;4960997;28;45654;-85
2022/03/24 10:13:57;;;;;;;;;44.50;37.00;;;;;-146.03;100.00;60875.16;4957535;28;47241;-85
2022/03/24 10:16:35;;;;;;;;;49.50;38.75;;;;;-146.03;100.00;60875.16;4963043;28;45468;-84
2022/03/24 10:19:02;;;;;;;;;43.25;36.00;;;;;-146.03;100.00;60875.16;4963808;28;45529;-84
2022/03/24 10:21:29;;;;;;;;;24.00;23.00;;;;;-146.03;100.00;60875.16;4963770;28;45476;-84
2022/03/24 10:23:57;;;;;;;;;46.50;37.50;;;;;-146.03;100.00;60875.16;4963149;28;45424;-84
2022/03/24 10:26:38;;;;;;;;;44.00;37.25;;;;;-146.03;100.00;60875.16;4961108;28;45265;-85
2022/03/24 10:29:03;;;;;;;;;47.25;38.25;;;;;-146.03;100.00;60875.16;4959954;28;45457;-85
2022/03/24 10:31:36;;;;;;;;;43.25;36.00;;;;;-146.03;100.00;60875.16;4962975;28;46107;-84
2022/03/24 10:34:02;;;;;;;;;45.25;37.75;;;;;-146.03;100.00;60875.16;4963513;28;46607;-84
2022/03/24 10:36:28;;;;;;;;;45.75;37.75;;;;;-146.03;100.00;60875.16;4963033;28;46457;-84
2022/03/24 10:38:58;;;;;;;;;46.25;37.25;;;;;-146.03;100.00;60875.16;4963478;28;45278;-84
2022/03/24 10:41:29;;;;;;;;;41.00;34.75;;;;;-146.03;100.00;60875.16;4960457;28;45600;-84
2022/03/24 10:43:57;;;;;;;;;42.00;35.75;;;;;-146.03;100.00;60875.16;4958483;28;45409;-85
2022/03/24 10:46:28;;;;;;;;;46.75;36.75;;;;;-146.03;100.00;60875.16;4959862;28;45529;-84
2022/03/24 10:48:54;;;;;;;;;45.75;38.25;;;;;-146.03;100.00;60875.16;4960562;28;45360;-84
2022/03/24 10:51:27;;;;;;;;;40.50;35.00;;;;;-146.03;100.00;60875.16;4960218;28;45412;-85
2022/03/24 10:54:11;;;;;;;;;35.25;29.50;;;;;-146.03;100.00;60875.16;4959627;28;45377;-85
2022/03/24 10:56:39;;;;;;;;;35.25;31.00;;;;;-146.03;100.00;60875.16;4960312;28;45387;-85
2022/03/24 10:59:05;;;;;;;;;27.50;24.75;;;;;-146.03;100.00;60875.16;4958228;28;45432;-84